You are listening to:
Miami FSS/Misc - Miami, Florida, United States

KMIA 020153Z 14004KT 10SM CLR 24/21 A3021 RMK AO2 SLP229 T02440206 $

If stream doesn't start automatically press the play button
If stream stops then reload player then press play